< Typhoon 200906 2009 Season Typhoon 200908 >
Typhoon 200907 (GONI)
General InformationTrack Information on Google MapsDetailed Wind InformationAccess Analytics MapList of All Images || NewsDisaster Info.WeblogTrackbackTyphoon FrontTyphoon ImaginationResourceGoogle EarthGE AnimationAtom FeedGeoJSON
Detalied Best Track (Time Zone = UTC)
Year Month Day Hour Lat. Long. Pressure (hPa) Wind (kt) Class Image Chart
2009 8 1 06 16.6 123.2 992 0 2 Image Chart
2009 8 1 12 16.9 121.9 994 0 2 Image Chart
2009 8 1 18 17.0 120.2 994 0 2 Image Chart
2009 8 2 00 17.2 118.5 994 0 2 Image Chart
2009 8 2 06 17.3 117.4 992 0 2 Image Chart
2009 8 2 12 17.4 116.6 992 0 2 Image Chart
2009 8 2 18 17.8 116.3 992 0 2 Image Chart
2009 8 3 00 18.5 116.2 994 0 2 Image Chart
2009 8 3 06 19.3 115.7 994 0 2 Image Chart
2009 8 3 12 19.7 115.3 992 35 3 Image Chart
2009 8 3 18 20.1 114.6 992 35 3 Image Chart
2009 8 4 00 20.7 114.3 992 35 3 Image Chart
2009 8 4 06 21.3 114.0 990 40 3 Image Chart
2009 8 4 12 21.5 113.5 990 40 3 Image Chart
2009 8 4 18 21.6 113.1 990 40 3 Image Chart
2009 8 5 00 21.8 112.6 990 40 3 Image Chart
2009 8 5 06 22.0 112.4 990 40 3 Image Chart
2009 8 5 12 22.0 112.1 990 40 3 Image Chart
2009 8 5 18 22.0 111.8 990 35 3 Image Chart
2009 8 6 00 22.0 111.4 990 35 3 Image Chart
2009 8 6 06 21.9 111.1 990 0 2 Image Chart
2009 8 6 12 21.4 110.5 990 0 2 Image Chart
2009 8 6 18 21.0 110.3 990 0 2 Image Chart
2009 8 7 00 20.6 109.6 990 0 2 Image Chart
2009 8 7 06 20.2 109.2 990 35 3 Image Chart
2009 8 7 12 19.9 108.9 990 35 3 Image Chart
2009 8 7 18 19.5 108.4 990 35 3 Image Chart
2009 8 8 00 19.1 108.3 990 35 3 Image Chart
2009 8 8 06 18.4 108.2 992 0 2 Image Chart
2009 8 8 12 17.8 108.7 992 0 2 Image Chart
2009 8 8 18 17.7 110.0 994 0 2 Image Chart
2009 8 9 00 18.0 111.2 994 0 2 Image Chart
2009 8 9 06 18.8 112.6 994 0 2 Image Chart
2009 8 9 12 19.3 113.3 994 0 2 Image Chart
2009 8 9 18 19.9 113.8 994 0 2 Image Chart
2009 8 10 00 20.4 114.3 996 0 2 Image Chart
Japan Meteorological Agency Best Track Data | Correction Date : 2009-10-02
< Typhoon 200906 2009 Season Typhoon 200908 >

Help